Time;durP1;ratioP1;P1;durP2;ratioP2;P2;SDS_P1;SDS_P2;PMS_P1;PMS_P2;Temp;Humidity;BMP_temperature;BMP_pressure;BME280_temperature;BME280_humidity;BME280_pressure;Samples;Min_cycle;Max_cycle;Signal;HPM_P1;HPM_P2
2022/01/29 07:08:49;;;;;;;;;11.00;10.33;;;;;;;;5113722;27;45729;-96
2022/01/29 07:11:18;;;;;;;;;9.67;8.67;;;;;;;;5130746;27;45471;-95
2022/01/29 07:13:43;;;;;;;;;9.00;9.00;;;;;;;;5117964;27;45803;-95
2022/01/29 07:16:09;;;;;;;;;8.67;8.67;;;;;;;;5112913;27;45521;-95
2022/01/29 07:18:34;;;;;;;;;4.33;4.00;;;;;;;;5096866;27;47041;-96
2022/01/29 07:20:59;;;;;;;;;7.00;7.00;;;;;;;;5116122;27;45710;-96
2022/01/29 07:23:24;;;;;;;;;9.00;7.67;;;;;;;;5109969;27;45172;-96
2022/01/29 07:28:17;;;;;;;;;8.33;7.67;;;;;;;;5056282;28;45423;-95
2022/01/29 07:30:42;;;;;;;;;7.00;7.00;;;;;;;;5063761;28;45252;-96
2022/01/29 07:33:08;;;;;;;;;7.33;7.00;;;;;;;;5049694;28;45518;-96
2022/01/29 07:35:33;;;;;;;;;12.67;11.00;;;;;;;;5051873;28;45728;-96
2022/01/29 07:37:58;;;;;;;;;8.00;6.00;;;;;;;;5048049;28;47063;-91
2022/01/29 07:40:23;;;;;;;;;7.00;7.00;;;;;;;;5054203;28;45347;-92
2022/01/29 07:42:48;;;;;;;;;4.67;4.67;;;;;;;;5051336;28;45340;-96
2022/01/29 07:45:14;;;;;;;;;8.67;7.00;;;;;;;;5050483;28;45377;-93
2022/01/29 07:47:39;;;;;;;;;7.00;7.00;;;;;;;;5029720;28;46059;-93
2022/01/29 07:50:04;;;;;;;;;8.67;5.67;;;;;;;;5044574;28;45360;-96
2022/01/29 07:52:31;;;;;;;;;8.00;8.00;;;;;;;;5031440;28;45440;-95
2022/01/29 07:54:56;;;;;;;;;6.67;6.67;;;;;;;;5032067;28;45420;-95
2022/01/29 07:57:22;;;;;;;;;9.33;6.33;;;;;;;;5034538;28;48983;-95
2022/01/29 07:59:47;;;;;;;;;8.00;8.00;;;;;;;;5067860;28;45387;-95
2022/01/29 08:02:12;;;;;;;;;7.33;7.00;;;;;;;;5063421;28;45245;-94
2022/01/29 08:04:37;;;;;;;;;3.00;3.00;;;;;;;;5021147;28;45460;-93
2022/01/29 08:07:03;;;;;;;;;9.33;7.33;;;;;;;;5051316;28;48298;-96
2022/01/29 08:09:28;;;;;;;;;4.33;4.33;;;;;;;;5050510;28;45533;-95
2022/01/29 08:11:53;;;;;;;;;5.00;5.00;;;;;;;;5048052;28;45583;-94
2022/01/29 08:14:18;;;;;;;;;7.33;4.67;;;;;;;;5018488;28;45597;-95
2022/01/29 08:16:43;;;;;;;;;7.00;4.33;;;;;;;;5047971;28;47148;-93
2022/01/29 08:19:08;;;;;;;;;8.00;7.00;;;;;;;;5029208;28;45470;-93
2022/01/29 08:21:34;;;;;;;;;6.67;4.00;;;;;;;;5017273;28;45239;-93
2022/01/29 08:23:59;;;;;;;;;8.00;4.67;;;;;;;;5050474;28;45602;-94
2022/01/29 08:26:24;;;;;;;;;3.33;3.33;;;;;;;;5033585;28;47033;-94
2022/01/29 08:28:49;;;;;;;;;4.33;4.33;;;;;;;;5035527;28;45611;-93
2022/01/29 08:31:14;;;;;;;;;6.33;6.33;;;;;;;;5051942;28;51814;-93
2022/01/29 08:33:40;;;;;;;;;7.00;5.67;;;;;;;;5036832;28;45505;-92
2022/01/29 08:36:05;;;;;;;;;4.00;4.00;;;;;;;;5017715;28;47473;-93
2022/01/29 08:38:30;;;;;;;;;8.00;5.00;;;;;;;;5029283;28;46052;-92
2022/01/29 08:40:55;;;;;;;;;8.00;5.00;;;;;;;;5018396;28;45364;-94
2022/01/29 08:43:24;;;;;;;;;3.67;3.00;;;;;;;;5014818;28;45597;-94
2022/01/29 08:45:50;;;;;;;;;6.00;6.00;;;;;;;;5017531;28;47225;-92
2022/01/29 08:48:15;;;;;;;;;3.00;3.00;;;;;;;;5032242;28;45725;-93
2022/01/29 08:50:41;;;;;;;;;6.00;6.00;;;;;;;;5035873;28;45379;-93
2022/01/29 08:53:06;;;;;;;;;5.00;5.00;;;;;;;;5004516;28;45398;-93
2022/01/29 08:55:36;;;;;;;;;6.33;4.33;;;;;;;;5041449;28;47057;-92
2022/01/29 08:58:01;;;;;;;;;7.00;6.67;;;;;;;;5054341;28;45382;-93
2022/01/29 09:00:26;;;;;;;;;4.00;4.00;;;;;;;;5068818;28;45369;-93
2022/01/29 09:02:52;;;;;;;;;4.00;4.00;;;;;;;;5037752;28;45669;-93
2022/01/29 09:05:18;;;;;;;;;4.00;4.00;;;;;;;;5051015;28;46513;-93
2022/01/29 09:07:44;;;;;;;;;5.33;5.00;;;;;;;;5018294;28;46049;-93
2022/01/29 09:10:09;;;;;;;;;9.00;5.33;;;;;;;;5035895;28;45325;-92
2022/01/29 09:12:34;;;;;;;;;7.33;6.33;;;;;;;;5052063;28;45374;-94
2022/01/29 09:14:59;;;;;;;;;6.00;3.00;;;;;;;;5052720;28;48057;-92
2022/01/29 09:17:25;;;;;;;;;4.67;4.67;;;;;;;;5052285;28;45373;-91
2022/01/29 09:19:50;;;;;;;;;11.33;11.33;;;;;;;;5023449;28;45422;-91
2022/01/29 09:22:15;;;;;;;;;13.00;9.00;;;;;;;;5045191;28;45549;-94
2022/01/29 09:24:40;;;;;;;;;6.67;4.67;;;;;;;;5023773;28;48513;-91
2022/01/29 09:27:06;;;;;;;;;3.67;3.67;;;;;;;;5060596;28;45285;-95
2022/01/29 09:29:31;;;;;;;;;7.33;7.33;;;;;;;;5020357;28;45390;-94
2022/01/29 09:31:56;;;;;;;;;9.33;7.00;;;;;;;;5035079;28;45595;-92
2022/01/29 09:34:21;;;;;;;;;7.00;5.33;;;;;;;;5009601;28;47228;-92
2022/01/29 09:36:46;;;;;;;;;6.33;6.33;;;;;;;;5035012;28;45436;-92
2022/01/29 09:39:12;;;;;;;;;5.33;5.33;;;;;;;;5034364;28;45438;-92
2022/01/29 09:41:41;;;;;;;;;5.33;5.33;;;;;;;;5034800;28;45401;-92
2022/01/29 09:44:07;;;;;;;;;3.00;3.00;;;;;;;;5049707;28;47040;-92
2022/01/29 09:46:32;;;;;;;;;5.00;5.00;;;;;;;;5016330;28;45904;-90
2022/01/29 09:48:58;;;;;;;;;7.00;5.00;;;;;;;;5039134;28;45546;-91
2022/01/29 09:51:23;;;;;;;;;4.00;4.00;;;;;;;;5022465;28;45627;-91
2022/01/29 09:53:48;;;;;;;;;5.33;4.00;;;;;;;;5019945;28;48111;-92
2022/01/29 09:56:14;;;;;;;;;6.00;4.00;;;;;;;;5034628;28;45487;-90
2022/01/29 09:58:44;;;;;;;;;5.67;5.67;;;;;;;;5016981;28;45398;-91
2022/01/29 10:01:09;;;;;;;;;5.00;5.00;;;;;;;;5034436;28;45326;-91
2022/01/29 10:03:35;;;;;;;;;4.67;4.67;;;;;;;;5032912;28;45440;-91
2022/01/29 10:06:01;;;;;;;;;4.00;4.00;;;;;;;;5049937;28;45787;-91
2022/01/29 10:08:27;;;;;;;;;3.67;3.67;;;;;;;;5026795;28;45354;-92
2022/01/29 10:10:54;;;;;;;;;5.00;4.33;;;;;;;;5014883;28;45550;-91
2022/01/29 10:13:22;;;;;;;;;7.00;5.33;;;;;;;;5031570;28;45429;-92
2022/01/29 10:15:47;;;;;;;;;6.33;6.33;;;;;;;;5046710;28;45398;-91
2022/01/29 10:18:19;;;;;;;;;3.67;3.67;;;;;;;;5032456;28;45466;-93
2022/01/29 10:20:44;;;;;;;;;3.67;3.67;;;;;;;;5012593;28;45608;-92
2022/01/29 10:23:10;;;;;;;;;5.00;5.00;;;;;;;;5011814;28;48187;-93
2022/01/29 10:25:42;;;;;;;;;6.33;4.00;;;;;;;;5016427;28;45685;-92
2022/01/29 10:28:13;;;;;;;;;3.00;3.00;;;;;;;;5010184;28;45798;-92
2022/01/29 10:30:48;;;;;;;;;4.33;2.33;;;;;;;;5014040;28;45342;-94
2022/01/29 10:33:17;;;;;;;;;4.67;4.33;;;;;;;;5033262;28;47135;-90
2022/01/29 10:35:44;;;;;;;;;3.33;3.33;;;;;;;;5023830;28;45428;-92
2022/01/29 10:38:09;;;;;;;;;4.00;3.00;;;;;;;;5014515;28;45699;-94
2022/01/29 10:40:34;;;;;;;;;4.00;4.00;;;;;;;;5023109;28;45395;-93
2022/01/29 10:43:04;;;;;;;;;7.00;4.67;;;;;;;;5023645;28;45585;-89
2022/01/29 10:45:34;;;;;;;;;3.67;3.67;;;;;;;;5014492;28;45367;-90
2022/01/29 10:47:59;;;;;;;;;7.00;5.67;;;;;;;;5032919;28;45656;-93
2022/01/29 10:50:25;;;;;;;;;5.00;5.00;;;;;;;;5013067;28;45527;-94
2022/01/29 10:52:51;;;;;;;;;5.00;5.00;;;;;;;;5008136;28;47609;-92
2022/01/29 10:55:16;;;;;;;;;5.33;5.33;;;;;;;;5031088;28;45452;-94
2022/01/29 10:57:45;;;;;;;;;6.33;6.33;;;;;;;;5031355;28;46312;-93
2022/01/29 11:00:24;;;;;;;;;8.33;7.00;;;;;;;;5032616;28;46542;-94
2022/01/29 11:02:50;;;;;;;;;2.33;2.33;;;;;;;;5030904;28;47355;-90
2022/01/29 11:05:15;;;;;;;;;6.00;5.00;;;;;;;;5044791;28;45843;-90
2022/01/29 11:07:51;;;;;;;;;9.00;7.00;;;;;;;;5030347;28;46088;-88
2022/01/29 11:10:17;;;;;;;;;10.00;8.67;;;;;;;;5007275;28;45494;-92
2022/01/29 11:12:44;;;;;;;;;9.67;8.67;;;;;;;;5030452;28;45763;-92
2022/01/29 11:15:09;;;;;;;;;16.67;15.67;;;;;;;;5013346;28;45648;-90
2022/01/29 11:17:34;;;;;;;;;11.00;10.67;;;;;;;;5031496;28;45500;-90
2022/01/29 11:20:02;;;;;;;;;5.33;5.33;;;;;;;;5005041;28;45599;-90
2022/01/29 11:22:29;;;;;;;;;2.00;2.00;;;;;;;;5029682;28;46363;-90
2022/01/29 11:24:57;;;;;;;;;2.00;2.00;;;;;;;;5011308;28;45470;-91
2022/01/29 11:27:26;;;;;;;;;3.00;3.00;;;;;;;;5046457;28;45534;-90
2022/01/29 11:29:58;;;;;;;;;1.33;1.33;;;;;;;;5043270;28;47133;-90
2022/01/29 11:32:25;;;;;;;;;1.00;1.00;;;;;;;;5015238;28;47418;-91
2022/01/29 11:34:59;;;;;;;;;1.33;1.33;;;;;;;;5033671;28;45573;-89
2022/01/29 11:37:43;;;;;;;;;2.00;2.00;;;;;;;;5026213;28;45470;-90
2022/01/29 11:40:12;;;;;;;;;0.33;0.33;;;;;;;;5027568;28;45813;-90
2022/01/29 11:42:50;;;;;;;;;1.00;0.00;;;;;;;;5016268;28;45425;-90
2022/01/29 11:45:35;;;;;;;;;1.67;1.67;;;;;;;;5013338;28;46375;-90
2022/01/29 11:48:00;;;;;;;;;2.33;2.33;;;;;;;;5029457;28;45598;-90
2022/01/29 11:50:28;;;;;;;;;2.33;1.00;;;;;;;;5010725;28;45609;-91
2022/01/29 11:52:57;;;;;;;;;2.33;1.67;;;;;;;;5033376;28;46639;-91
2022/01/29 11:55:33;;;;;;;;;2.00;2.00;;;;;;;;5060927;28;45730;-91
2022/01/29 11:58:30;;;;;;;;;2.00;2.00;;;;;;;;5037467;28;45610;-91
2022/01/29 12:00:57;;;;;;;;;2.33;2.33;;;;;;;;5036171;28;45483;-90
2022/01/29 12:06:05;;;;;;;;;1.00;1.00;;;;;;;;5030847;28;45594;-91
2022/01/29 12:08:37;;;;;;;;;3.00;3.00;;;;;;;;5021305;28;51909;-90
2022/01/29 12:11:09;;;;;;;;;0.33;0.33;;;;;;;;5037264;28;45389;-90
2022/01/29 12:13:34;;;;;;;;;1.67;1.67;;;;;;;;5030459;28;46926;-90
2022/01/29 12:15:59;;;;;;;;;2.00;1.67;;;;;;;;5021096;28;45558;-88
2022/01/29 12:18:33;;;;;;;;;2.00;2.00;;;;;;;;5030523;28;45493;-91
2022/01/29 12:20:58;;;;;;;;;2.00;2.00;;;;;;;;5030261;28;45550;-88
2022/01/29 12:23:24;;;;;;;;;2.33;1.00;;;;;;;;5013680;28;47341;-88
2022/01/29 12:25:53;;;;;;;;;1.00;1.00;;;;;;;;5011246;28;46178;-88
2022/01/29 12:28:18;;;;;;;;;3.00;2.00;;;;;;;;5029475;28;45743;-88
2022/01/29 12:30:44;;;;;;;;;1.00;1.00;;;;;;;;5013695;28;45625;-90
2022/01/29 12:33:11;;;;;;;;;3.00;1.33;;;;;;;;5019286;28;47430;-92
2022/01/29 12:35:37;;;;;;;;;1.00;1.00;;;;;;;;5013377;28;47040;-91
2022/01/29 12:38:04;;;;;;;;;2.00;2.00;;;;;;;;5045854;28;45313;-91
2022/01/29 12:40:36;;;;;;;;;1.67;1.33;;;;;;;;5012949;28;45303;-91
2022/01/29 12:43:10;;;;;;;;;2.00;2.00;;;;;;;;5032121;28;46431;-91
2022/01/29 12:45:35;;;;;;;;;2.00;2.00;;;;;;;;5046294;28;45990;-91
2022/01/29 12:48:08;;;;;;;;;2.00;1.33;;;;;;;;5051377;28;45518;-92
2022/01/29 12:50:33;;;;;;;;;1.00;1.00;;;;;;;;5022316;28;45581;-92
2022/01/29 12:53:14;;;;;;;;;1.67;1.67;;;;;;;;5039523;28;46836;-91
2022/01/29 12:55:39;;;;;;;;;2.00;2.00;;;;;;;;5036476;28;45692;-89
2022/01/29 12:58:05;;;;;;;;;3.00;2.33;;;;;;;;5031809;28;45431;-93
2022/01/29 13:00:30;;;;;;;;;1.67;1.67;;;;;;;;5049849;28;45411;-92
2022/01/29 13:03:06;;;;;;;;;2.00;2.00;;;;;;;;5038816;28;45285;-90
2022/01/29 13:05:32;;;;;;;;;2.00;2.00;;;;;;;;5024685;28;45601;-92
2022/01/29 13:07:57;;;;;;;;;2.00;2.00;;;;;;;;5020508;28;45392;-89
2022/01/29 13:10:22;;;;;;;;;2.00;2.00;;;;;;;;5021673;28;45608;-89
2022/01/29 13:12:47;;;;;;;;;2.00;2.00;;;;;;;;5048548;28;45449;-89
2022/01/29 13:15:13;;;;;;;;;2.00;2.00;;;;;;;;5062949;28;45406;-90
2022/01/29 13:17:42;;;;;;;;;3.67;2.00;;;;;;;;5037432;28;45695;-89
2022/01/29 13:20:08;;;;;;;;;3.00;3.00;;;;;;;;5033998;28;45731;-90
2022/01/29 13:22:33;;;;;;;;;3.33;2.00;;;;;;;;5015538;28;47944;-90
2022/01/29 13:25:01;;;;;;;;;2.67;2.67;;;;;;;;5015184;28;45521;-90
2022/01/29 13:27:30;;;;;;;;;1.67;1.67;;;;;;;;5021009;28;45350;-90
2022/01/29 13:30:21;;;;;;;;;2.00;2.00;;;;;;;;5056491;28;45495;-90
2022/01/29 13:33:07;;;;;;;;;2.33;2.33;;;;;;;;5015150;28;47426;-92
2022/01/29 13:35:34;;;;;;;;;4.67;3.00;;;;;;;;5030035;28;45589;-93
2022/01/29 13:38:08;;;;;;;;;3.00;3.00;;;;;;;;5015345;28;45516;-94
2022/01/29 13:40:37;;;;;;;;;2.33;2.00;;;;;;;;5046034;28;46462;-94
2022/01/29 13:43:06;;;;;;;;;4.00;3.00;;;;;;;;5021632;28;48657;-91
2022/01/29 13:45:34;;;;;;;;;3.00;3.00;;;;;;;;5020576;28;46024;-90
2022/01/29 13:48:02;;;;;;;;;4.00;4.00;;;;;;;;5047134;28;45395;-91
2022/01/29 13:50:34;;;;;;;;;2.33;2.33;;;;;;;;5045652;28;45490;-91
2022/01/29 13:53:04;;;;;;;;;3.00;3.00;;;;;;;;5029730;28;47484;-91
2022/01/29 13:55:30;;;;;;;;;6.00;3.67;;;;;;;;5010518;28;45598;-90
2022/01/29 13:58:03;;;;;;;;;3.00;3.00;;;;;;;;5011260;28;45861;-93
2022/01/29 14:00:29;;;;;;;;;1.33;1.33;;;;;;;;5036490;28;45400;-93
2022/01/29 14:02:54;;;;;;;;;2.00;2.00;;;;;;;;5032480;28;45310;-93
2022/01/29 14:05:24;;;;;;;;;2.67;2.00;;;;;;;;5012369;28;45645;-93
2022/01/29 14:07:49;;;;;;;;;2.00;2.00;;;;;;;;5011579;28;45445;-92
2022/01/29 14:10:17;;;;;;;;;2.33;2.33;;;;;;;;5038066;28;45796;-93
2022/01/29 14:12:46;;;;;;;;;3.00;3.00;;;;;;;;5045284;28;46607;-92
2022/01/29 14:15:11;;;;;;;;;2.33;2.33;;;;;;;;5057415;28;45373;-92
2022/01/29 14:17:37;;;;;;;;;2.00;2.00;;;;;;;;5019283;28;45345;-93
2022/01/29 14:20:04;;;;;;;;;3.00;3.00;;;;;;;;5048282;28;45399;-92
2022/01/29 14:22:30;;;;;;;;;3.67;3.00;;;;;;;;5027402;28;47365;-92
2022/01/29 14:24:59;;;;;;;;;3.00;2.00;;;;;;;;5019061;28;45590;-92
2022/01/29 14:27:24;;;;;;;;;5.00;2.00;;;;;;;;5018371;28;45282;-91
2022/01/29 14:29:50;;;;;;;;;3.00;1.67;;;;;;;;5015900;28;45270;-92
2022/01/29 14:32:15;;;;;;;;;2.00;2.00;;;;;;;;5024915;28;45558;-93
2022/01/29 14:34:41;;;;;;;;;4.00;2.00;;;;;;;;5011125;28;45496;-93
2022/01/29 14:37:06;;;;;;;;;3.33;3.33;;;;;;;;5015941;28;47859;-93
2022/01/29 14:39:32;;;;;;;;;4.00;4.00;;;;;;;;5044617;28;45330;-92
2022/01/29 14:41:59;;;;;;;;;2.00;2.00;;;;;;;;5005067;28;47559;-92
2022/01/29 14:44:26;;;;;;;;;3.00;3.00;;;;;;;;5012492;28;46145;-93
2022/01/29 14:46:51;;;;;;;;;3.00;3.00;;;;;;;;5012000;28;45535;-93
2022/01/29 14:49:17;;;;;;;;;4.00;3.00;;;;;;;;5012711;28;46578;-92
2022/01/29 14:51:44;;;;;;;;;3.67;3.00;;;;;;;;5012885;28;47109;-93
2022/01/29 14:54:10;;;;;;;;;4.00;4.00;;;;;;;;5033095;28;45250;-92
2022/01/29 14:56:36;;;;;;;;;2.67;2.67;;;;;;;;5012113;28;45666;-92
2022/01/29 14:59:01;;;;;;;;;1.00;1.00;;;;;;;;5014629;28;45449;-92
2022/01/29 15:01:26;;;;;;;;;2.33;2.33;;;;;;;;5012228;28;47175;-92
2022/01/29 15:03:55;;;;;;;;;3.33;3.33;;;;;;;;5029017;28;45491;-93
2022/01/29 15:06:24;;;;;;;;;2.00;2.00;;;;;;;;5009848;28;45483;-93
2022/01/29 15:08:50;;;;;;;;;2.00;2.00;;;;;;;;5046040;28;45523;-92
2022/01/29 15:11:19;;;;;;;;;2.00;1.33;;;;;;;;5010111;28;47399;-92
2022/01/29 15:13:44;;;;;;;;;3.33;2.00;;;;;;;;5012679;28;45449;-92
2022/01/29 15:16:10;;;;;;;;;2.33;1.67;;;;;;;;5011387;28;45385;-91
2022/01/29 15:18:35;;;;;;;;;5.00;2.00;;;;;;;;5017408;28;45544;-92
2022/01/29 15:21:01;;;;;;;;;2.00;2.00;;;;;;;;5044492;28;46983;-93
2022/01/29 15:23:27;;;;;;;;;3.00;3.00;;;;;;;;5012947;28;45369;-92
2022/01/29 15:25:52;;;;;;;;;4.00;4.00;;;;;;;;5013465;28;45438;-91
2022/01/29 15:28:18;;;;;;;;;4.67;3.00;;;;;;;;5018749;28;45660;-92
2022/01/29 15:30:43;;;;;;;;;3.33;2.33;;;;;;;;5036196;28;45410;-92
2022/01/29 15:33:12;;;;;;;;;2.00;2.00;;;;;;;;5018625;28;45508;-93
2022/01/29 15:35:38;;;;;;;;;1.00;1.00;;;;;;;;5017445;28;45622;-92
2022/01/29 15:38:03;;;;;;;;;1.00;1.00;;;;;;;;5037196;28;45525;-92
2022/01/29 15:40:28;;;;;;;;;3.00;2.00;;;;;;;;5014859;28;47089;-93
2022/01/29 15:42:53;;;;;;;;;1.00;1.00;;;;;;;;5022508;28;45826;-93
2022/01/29 15:45:19;;;;;;;;;1.33;1.33;;;;;;;;5054156;28;45426;-93
2022/01/29 15:47:48;;;;;;;;;2.00;2.00;;;;;;;;5038854;28;45392;-93
2022/01/29 15:50:13;;;;;;;;;2.33;2.33;;;;;;;;5048144;28;47326;-92
2022/01/29 15:52:38;;;;;;;;;3.00;3.00;;;;;;;;5014015;28;45469;-92
2022/01/29 15:55:04;;;;;;;;;2.33;2.33;;;;;;;;5013710;28;45730;-93
2022/01/29 15:57:30;;;;;;;;;2.00;1.00;;;;;;;;5016914;28;45456;-92
2022/01/29 15:59:55;;;;;;;;;4.00;2.67;;;;;;;;5035205;28;46199;-92
2022/01/29 16:02:23;;;;;;;;;3.67;2.67;;;;;;;;5026463;28;45431;-92
2022/01/29 16:04:50;;;;;;;;;3.33;2.33;;;;;;;;5045766;28;45571;-91
2022/01/29 16:07:15;;;;;;;;;4.00;3.00;;;;;;;;5014091;28;45420;-91
2022/01/29 16:09:40;;;;;;;;;2.67;2.00;;;;;;;;5019815;28;48199;-90
2022/01/29 16:12:06;;;;;;;;;1.00;1.00;;;;;;;;5049375;28;45993;-92
2022/01/29 16:14:31;;;;;;;;;3.00;2.00;;;;;;;;5033344;28;45491;-91
2022/01/29 16:16:56;;;;;;;;;2.33;2.33;;;;;;;;5029881;28;45541;-91
2022/01/29 16:19:22;;;;;;;;;4.00;2.67;;;;;;;;5011980;28;47210;-91
2022/01/29 16:21:47;;;;;;;;;5.00;3.00;;;;;;;;5020585;28;45856;-92
2022/01/29 16:24:14;;;;;;;;;4.00;3.00;;;;;;;;5035075;28;45805;-91
2022/01/29 16:26:40;;;;;;;;;2.00;2.00;;;;;;;;5016367;28;45456;-92
2022/01/29 16:29:05;;;;;;;;;6.00;4.33;;;;;;;;5025460;28;46044;-91
2022/01/29 16:31:30;;;;;;;;;3.00;2.00;;;;;;;;5039508;28;45868;-91
2022/01/29 16:33:56;;;;;;;;;3.33;2.00;;;;;;;;5013855;28;45678;-91
2022/01/29 16:36:21;;;;;;;;;4.00;4.00;;;;;;;;5017074;28;45615;-91
2022/01/29 16:38:46;;;;;;;;;2.33;2.33;;;;;;;;5033514;28;46962;-91
2022/01/29 16:41:12;;;;;;;;;3.67;3.33;;;;;;;;5029534;28;45626;-90
2022/01/29 16:43:37;;;;;;;;;3.00;3.00;;;;;;;;5016915;28;45539;-91
2022/01/29 16:46:03;;;;;;;;;5.00;3.67;;;;;;;;5032887;28;45585;-92
2022/01/29 16:48:28;;;;;;;;;4.67;4.67;;;;;;;;5020133;28;47501;-91
2022/01/29 16:50:54;;;;;;;;;3.00;3.00;;;;;;;;5035463;28;45502;-90
2022/01/29 16:53:20;;;;;;;;;2.67;2.67;;;;;;;;5026604;28;45450;-92
2022/01/29 16:55:45;;;;;;;;;2.00;2.00;;;;;;;;5022254;28;45468;-91
2022/01/29 16:58:13;;;;;;;;;7.33;4.00;;;;;;;;5020378;28;47059;-91
2022/01/29 17:00:38;;;;;;;;;2.33;2.33;;;;;;;;5015982;28;45689;-90
2022/01/29 17:03:03;;;;;;;;;4.00;4.00;;;;;;;;5047625;28;45402;-90
2022/01/29 17:05:29;;;;;;;;;4.00;3.00;;;;;;;;5045055;28;45704;-91
2022/01/29 17:07:54;;;;;;;;;3.00;3.00;;;;;;;;5012878;28;48466;-89
2022/01/29 17:10:20;;;;;;;;;4.00;4.00;;;;;;;;5011363;28;45449;-91
2022/01/29 17:12:45;;;;;;;;;5.33;4.00;;;;;;;;5015104;28;45345;-92
2022/01/29 17:15:11;;;;;;;;;4.00;4.00;;;;;;;;5034428;28;45436;-91
2022/01/29 17:17:37;;;;;;;;;5.00;3.67;;;;;;;;5014241;28;47164;-91
2022/01/29 17:20:02;;;;;;;;;3.33;3.33;;;;;;;;5013314;28;45417;-91
2022/01/29 17:22:27;;;;;;;;;5.67;3.00;;;;;;;;5031662;28;45826;-91
2022/01/29 17:24:53;;;;;;;;;1.33;1.33;;;;;;;;5011498;28;45563;-91
2022/01/29 17:27:18;;;;;;;;;2.33;2.00;;;;;;;;5045564;28;47159;-91
2022/01/29 17:29:44;;;;;;;;;1.00;1.00;;;;;;;;5030708;28;45446;-91
2022/01/29 17:32:10;;;;;;;;;2.67;2.67;;;;;;;;5047594;28;45446;-92
2022/01/29 17:34:38;;;;;;;;;2.00;1.00;;;;;;;;5011880;28;45612;-91
2022/01/29 17:37:04;;;;;;;;;1.00;1.00;;;;;;;;5028733;28;46624;-91
2022/01/29 17:39:29;;;;;;;;;3.00;3.00;;;;;;;;5030499;28;45544;-91
2022/01/29 17:41:54;;;;;;;;;2.00;2.00;;;;;;;;5014790;28;45298;-91
2022/01/29 17:44:20;;;;;;;;;3.33;2.00;;;;;;;;5011811;28;45658;-92
2022/01/29 17:46:45;;;;;;;;;6.33;2.00;;;;;;;;5014316;28;46381;-92
2022/01/29 17:49:12;;;;;;;;;3.00;3.00;;;;;;;;5031312;28;45398;-91
2022/01/29 17:51:37;;;;;;;;;5.00;3.33;;;;;;;;5046332;28;45303;-92
2022/01/29 17:54:02;;;;;;;;;3.67;3.67;;;;;;;;5046786;28;45483;-91
2022/01/29 17:56:27;;;;;;;;;2.00;2.00;;;;;;;;5030407;28;46288;-94
2022/01/29 17:58:52;;;;;;;;;5.00;3.33;;;;;;;;5036463;28;45676;-91
2022/01/29 18:01:18;;;;;;;;;4.00;4.00;;;;;;;;5011830;28;45576;-91
2022/01/29 18:03:43;;;;;;;;;3.67;3.67;;;;;;;;5035810;28;45479;-90
2022/01/29 18:06:09;;;;;;;;;2.33;2.00;;;;;;;;5033889;28;46718;-91
2022/01/29 18:08:34;;;;;;;;;5.00;2.67;;;;;;;;5024244;28;45479;-91
2022/01/29 18:10:59;;;;;;;;;3.00;3.00;;;;;;;;5038568;28;46171;-90
2022/01/29 18:13:24;;;;;;;;;3.00;3.00;;;;;;;;5033725;28;45562;-90
2022/01/29 18:15:50;;;;;;;;;2.33;2.33;;;;;;;;5033638;28;46579;-91
2022/01/29 18:18:16;;;;;;;;;3.67;3.67;;;;;;;;5049378;28;46112;-91
2022/01/29 18:20:42;;;;;;;;;2.67;2.33;;;;;;;;5011808;28;45614;-91
2022/01/29 18:23:07;;;;;;;;;4.00;4.00;;;;;;;;5040126;28;45455;-90
2022/01/29 18:25:32;;;;;;;;;4.00;4.00;;;;;;;;5021011;28;47100;-90
2022/01/29 18:27:58;;;;;;;;;3.00;3.00;;;;;;;;5038602;28;45587;-91
2022/01/29 18:30:24;;;;;;;;;4.67;2.00;;;;;;;;5036064;28;45569;-89
2022/01/29 18:32:49;;;;;;;;;4.00;2.00;;;;;;;;5044199;28;45543;-91
2022/01/29 18:35:15;;;;;;;;;4.33;2.00;;;;;;;;5015105;28;47130;-91
2022/01/29 18:37:40;;;;;;;;;2.00;2.00;;;;;;;;5045541;28;45441;-90
2022/01/29 18:40:11;;;;;;;;;2.00;2.00;;;;;;;;5014061;28;45511;-89
2022/01/29 18:42:37;;;;;;;;;2.00;2.00;;;;;;;;5017307;28;45439;-94
2022/01/29 18:45:07;;;;;;;;;1.00;1.00;;;;;;;;5033803;28;47407;-91
2022/01/29 18:47:32;;;;;;;;;2.00;2.00;;;;;;;;5035254;28;45376;-92
2022/01/29 18:49:57;;;;;;;;;2.00;2.00;;;;;;;;5031169;28;45735;-95
2022/01/29 18:52:22;;;;;;;;;2.00;1.00;;;;;;;;5012175;28;45691;-93
2022/01/29 18:54:48;;;;;;;;;3.00;2.00;;;;;;;;5016718;28;46235;-93
2022/01/29 18:57:13;;;;;;;;;3.67;3.67;;;;;;;;5044816;28;46437;-93
2022/01/29 18:59:38;;;;;;;;;3.00;2.00;;;;;;;;5034128;28;45506;-94
2022/01/29 19:02:03;;;;;;;;;4.00;4.00;;;;;;;;5016141;28;45456;-92
2022/01/29 19:04:29;;;;;;;;;3.00;3.00;;;;;;;;5025072;28;47087;-95
2022/01/29 19:06:54;;;;;;;;;2.00;2.00;;;;;;;;5014843;28;45512;-93
2022/01/29 19:09:22;;;;;;;;;2.00;2.00;;;;;;;;5049078;28;45384;-94
2022/01/29 19:11:47;;;;;;;;;4.00;4.00;;;;;;;;5012021;28;45341;-94
2022/01/29 19:14:12;;;;;;;;;3.00;2.00;;;;;;;;5015379;28;48259;-95
2022/01/29 19:16:44;;;;;;;;;5.00;3.00;;;;;;;;5008131;28;45393;-96
2022/01/29 19:19:09;;;;;;;;;4.33;4.00;;;;;;;;5038403;28;45331;-93
2022/01/29 19:21:34;;;;;;;;;8.67;8.67;;;;;;;;5048568;28;45458;-94
2022/01/29 19:23:59;;;;;;;;;3.00;3.00;;;;;;;;5015198;28;47075;-95
2022/01/29 19:26:24;;;;;;;;;3.00;3.00;;;;;;;;5040909;28;45392;-95
2022/01/29 19:28:50;;;;;;;;;8.00;7.33;;;;;;;;5014963;28;45488;-92
2022/01/29 19:31:15;;;;;;;;;17.00;12.00;;;;;;;;5017218;28;45290;-94
2022/01/29 19:33:40;;;;;;;;;11.33;9.67;;;;;;;;5016290;28;47197;-95
2022/01/29 19:36:07;;;;;;;;;7.00;4.67;;;;;;;;5020520;28;45297;-96
2022/01/29 19:38:32;;;;;;;;;3.00;3.00;;;;;;;;5032815;28;45813;-96
2022/01/29 19:40:57;;;;;;;;;3.00;3.00;;;;;;;;5045718;28;45486;-96
2022/01/29 19:43:22;;;;;;;;;3.00;3.00;;;;;;;;5019518;28;48273;-96
2022/01/29 19:45:51;;;;;;;;;3.00;3.00;;;;;;;;5015827;28;45363;-95
2022/01/29 19:48:16;;;;;;;;;7.67;3.67;;;;;;;;5028884;28;45277;-92
2022/01/29 19:50:41;;;;;;;;;3.00;2.00;;;;;;;;5031819;28;45520;-94
2022/01/29 19:53:07;;;;;;;;;2.67;2.00;;;;;;;;5015894;28;47276;-96
2022/01/29 19:55:33;;;;;;;;;3.00;2.00;;;;;;;;5014733;28;47557;-95
2022/01/29 19:57:59;;;;;;;;;3.67;2.00;;;;;;;;5014274;28;45521;-96
2022/01/29 20:00:24;;;;;;;;;3.33;3.00;;;;;;;;5015772;28;45499;-93
2022/01/29 20:02:49;;;;;;;;;3.00;2.00;;;;;;;;5045462;28;47229;-92
2022/01/29 20:05:19;;;;;;;;;2.00;2.00;;;;;;;;5022347;28;45569;-93
